sensor_id;sensor_type;location;lat;lon;timestamp;P1;durP1;ratioP1;P2;durP2;ratioP2
49193;SDS011;35029;50.804;12.866;2022-07-29T00:02:07;9.95;;;3.03;;
49193;SDS011;35029;50.804;12.866;2022-07-29T00:04:35;7.55;;;2.85;;
49193;SDS011;35029;50.804;12.866;2022-07-29T00:07:03;7.68;;;2.63;;
49193;SDS011;35029;50.804;12.866;2022-07-29T00:09:29;7.63;;;2.83;;
49193;SDS011;35029;50.804;12.866;2022-07-29T00:11:56;7.07;;;3.00;;
49193;SDS011;35029;50.804;12.866;2022-07-29T00:14:24;11.55;;;2.67;;
49193;SDS011;35029;50.804;12.866;2022-07-29T00:16:49;9.85;;;3.10;;
49193;SDS011;35029;50.804;12.866;2022-07-29T00:19:15;8.40;;;3.17;;
49193;SDS011;35029;50.804;12.866;2022-07-29T00:21:40;5.95;;;2.85;;
49193;SDS011;35029;50.804;12.866;2022-07-29T00:24:06;5.93;;;3.03;;
49193;SDS011;35029;50.804;12.866;2022-07-29T00:26:32;9.65;;;3.35;;
49193;SDS011;35029;50.804;12.866;2022-07-29T00:28:58;5.28;;;3.20;;
49193;SDS011;35029;50.804;12.866;2022-07-29T00:31:24;7.30;;;3.15;;
49193;SDS011;35029;50.804;12.866;2022-07-29T00:33:51;5.07;;;3.60;;
49193;SDS011;35029;50.804;12.866;2022-07-29T00:36:16;7.70;;;3.70;;
49193;SDS011;35029;50.804;12.866;2022-07-29T00:38:42;5.55;;;3.83;;
49193;SDS011;35029;50.804;12.866;2022-07-29T00:41:10;5.65;;;3.85;;
49193;SDS011;35029;50.804;12.866;2022-07-29T00:43:37;13.35;;;4.28;;
49193;SDS011;35029;50.804;12.866;2022-07-29T00:46:02;5.82;;;3.38;;
49193;SDS011;35029;50.804;12.866;2022-07-29T00:48:28;6.63;;;3.35;;
49193;SDS011;35029;50.804;12.866;2022-07-29T00:50:54;7.63;;;3.60;;
49193;SDS011;35029;50.804;12.866;2022-07-29T00:53:21;6.30;;;3.40;;
49193;SDS011;35029;50.804;12.866;2022-07-29T00:55:46;5.90;;;3.67;;
49193;SDS011;35029;50.804;12.866;2022-07-29T00:58:12;5.35;;;3.45;;
49193;SDS011;35029;50.804;12.866;2022-07-29T01:00:40;6.68;;;3.15;;
49193;SDS011;35029;50.804;12.866;2022-07-29T01:03:06;6.95;;;3.15;;
49193;SDS011;35029;50.804;12.866;2022-07-29T01:05:32;6.13;;;3.10;;
49193;SDS011;35029;50.804;12.866;2022-07-29T01:07:59;7.20;;;3.95;;
49193;SDS011;35029;50.804;12.866;2022-07-29T01:10:26;5.50;;;3.38;;
49193;SDS011;35029;50.804;12.866;2022-07-29T01:12:53;7.28;;;4.03;;
49193;SDS011;35029;50.804;12.866;2022-07-29T01:15:22;6.70;;;4.28;;
49193;SDS011;35029;50.804;12.866;2022-07-29T01:25:48;7.63;;;4.03;;
49193;SDS011;35029;50.804;12.866;2022-07-29T01:31:12;7.70;;;4.25;;
49193;SDS011;35029;50.804;12.866;2022-07-29T01:33:43;7.80;;;4.68;;
49193;SDS011;35029;50.804;12.866;2022-07-29T01:36:15;11.65;;;4.45;;
49193;SDS011;35029;50.804;12.866;2022-07-29T01:38:45;9.80;;;4.20;;
49193;SDS011;35029;50.804;12.866;2022-07-29T01:41:16;12.23;;;4.65;;
49193;SDS011;35029;50.804;12.866;2022-07-29T01:43:54;6.95;;;4.72;;
49193;SDS011;35029;50.804;12.866;2022-07-29T01:47:28;5.85;;;4.05;;
49193;SDS011;35029;50.804;12.866;2022-07-29T01:49:40;5.15;;;4.03;;
49193;SDS011;35029;50.804;12.866;2022-07-29T01:52:13;7.13;;;4.63;;
49193;SDS011;35029;50.804;12.866;2022-07-29T01:54:47;7.60;;;3.83;;
49193;SDS011;35029;50.804;12.866;2022-07-29T01:57:18;9.10;;;4.75;;
49193;SDS011;35029;50.804;12.866;2022-07-29T01:59:46;7.28;;;4.50;;
49193;SDS011;35029;50.804;12.866;2022-07-29T02:02:13;8.13;;;4.30;;
49193;SDS011;35029;50.804;12.866;2022-07-29T02:04:41;6.25;;;4.30;;
49193;SDS011;35029;50.804;12.866;2022-07-29T02:07:10;8.02;;;4.28;;
49193;SDS011;35029;50.804;12.866;2022-07-29T02:09:41;6.68;;;4.20;;
49193;SDS011;35029;50.804;12.866;2022-07-29T02:12:09;10.07;;;5.15;;
49193;SDS011;35029;50.804;12.866;2022-07-29T02:14:39;6.47;;;3.75;;
49193;SDS011;35029;50.804;12.866;2022-07-29T02:17:08;5.70;;;3.78;;
49193;SDS011;35029;50.804;12.866;2022-07-29T02:19:37;7.30;;;4.45;;
49193;SDS011;35029;50.804;12.866;2022-07-29T02:22:03;7.05;;;4.15;;
49193;SDS011;35029;50.804;12.866;2022-07-29T02:24:31;5.70;;;3.45;;
49193;SDS011;35029;50.804;12.866;2022-07-29T02:26:58;6.22;;;4.00;;
49193;SDS011;35029;50.804;12.866;2022-07-29T02:29:26;6.53;;;3.88;;
49193;SDS011;35029;50.804;12.866;2022-07-29T02:31:53;5.82;;;3.55;;
49193;SDS011;35029;50.804;12.866;2022-07-29T02:34:20;7.57;;;3.80;;
49193;SDS011;35029;50.804;12.866;2022-07-29T02:36:47;6.10;;;3.53;;
49193;SDS011;35029;50.804;12.866;2022-07-29T02:39:14;6.60;;;3.85;;
49193;SDS011;35029;50.804;12.866;2022-07-29T02:41:45;4.95;;;3.30;;
49193;SDS011;35029;50.804;12.866;2022-07-29T02:44:17;5.90;;;3.80;;
49193;SDS011;35029;50.804;12.866;2022-07-29T02:52:08;5.65;;;3.63;;
49193;SDS011;35029;50.804;12.866;2022-07-29T02:57:29;6.60;;;3.83;;
49193;SDS011;35029;50.804;12.866;2022-07-29T03:00:05;4.95;;;3.53;;
49193;SDS011;35029;50.804;12.866;2022-07-29T03:02:34;4.50;;;3.40;;
49193;SDS011;35029;50.804;12.866;2022-07-29T03:05:03;6.80;;;3.60;;
49193;SDS011;35029;50.804;12.866;2022-07-29T03:07:29;5.95;;;3.65;;
49193;SDS011;35029;50.804;12.866;2022-07-29T03:09:56;8.20;;;3.75;;
49193;SDS011;35029;50.804;12.866;2022-07-29T03:12:22;8.70;;;4.07;;
49193;SDS011;35029;50.804;12.866;2022-07-29T03:14:48;7.40;;;3.35;;
49193;SDS011;35029;50.804;12.866;2022-07-29T03:17:14;5.50;;;3.63;;
49193;SDS011;35029;50.804;12.866;2022-07-29T03:19:40;7.20;;;3.28;;
49193;SDS011;35029;50.804;12.866;2022-07-29T03:22:06;6.72;;;3.88;;
49193;SDS011;35029;50.804;12.866;2022-07-29T03:24:33;7.45;;;4.35;;
49193;SDS011;35029;50.804;12.866;2022-07-29T03:27:01;5.85;;;3.70;;
49193;SDS011;35029;50.804;12.866;2022-07-29T03:29:28;7.70;;;3.45;;
49193;SDS011;35029;50.804;12.866;2022-07-29T03:31:53;5.78;;;3.58;;
49193;SDS011;35029;50.804;12.866;2022-07-29T03:34:19;7.65;;;4.30;;
49193;SDS011;35029;50.804;12.866;2022-07-29T03:36:45;9.40;;;3.80;;
49193;SDS011;35029;50.804;12.866;2022-07-29T03:39:11;6.28;;;3.78;;
49193;SDS011;35029;50.804;12.866;2022-07-29T03:41:41;6.45;;;3.47;;
49193;SDS011;35029;50.804;12.866;2022-07-29T03:44:10;6.82;;;4.05;;
49193;SDS011;35029;50.804;12.866;2022-07-29T03:46:37;7.38;;;3.25;;
49193;SDS011;35029;50.804;12.866;2022-07-29T03:49:06;6.75;;;4.32;;
49193;SDS011;35029;50.804;12.866;2022-07-29T03:51:33;9.23;;;5.00;;
49193;SDS011;35029;50.804;12.866;2022-07-29T03:54:03;8.63;;;4.32;;
49193;SDS011;35029;50.804;12.866;2022-07-29T03:56:30;9.35;;;4.05;;
49193;SDS011;35029;50.804;12.866;2022-07-29T03:58:59;8.90;;;4.65;;
49193;SDS011;35029;50.804;12.866;2022-07-29T04:01:27;10.18;;;4.80;;
49193;SDS011;35029;50.804;12.866;2022-07-29T04:03:54;7.32;;;4.35;;
49193;SDS011;35029;50.804;12.866;2022-07-29T04:06:20;9.90;;;4.07;;
49193;SDS011;35029;50.804;12.866;2022-07-29T04:08:46;13.27;;;4.32;;
49193;SDS011;35029;50.804;12.866;2022-07-29T04:11:11;6.65;;;4.05;;
49193;SDS011;35029;50.804;12.866;2022-07-29T04:13:38;7.15;;;3.92;;
49193;SDS011;35029;50.804;12.866;2022-07-29T04:16:04;8.07;;;4.53;;
49193;SDS011;35029;50.804;12.866;2022-07-29T04:18:29;7.07;;;4.00;;
49193;SDS011;35029;50.804;12.866;2022-07-29T04:20:55;9.02;;;4.47;;
49193;SDS011;35029;50.804;12.866;2022-07-29T04:23:20;6.53;;;4.63;;
49193;SDS011;35029;50.804;12.866;2022-07-29T04:25:46;8.63;;;4.28;;
49193;SDS011;35029;50.804;12.866;2022-07-29T04:28:11;9.05;;;4.22;;
49193;SDS011;35029;50.804;12.866;2022-07-29T04:30:37;5.47;;;4.15;;
49193;SDS011;35029;50.804;12.866;2022-07-29T04:33:04;5.97;;;4.25;;
49193;SDS011;35029;50.804;12.866;2022-07-29T04:35:33;9.90;;;3.90;;
49193;SDS011;35029;50.804;12.866;2022-07-29T04:38:00;8.95;;;4.18;;
49193;SDS011;35029;50.804;12.866;2022-07-29T04:40:25;7.82;;;4.10;;
49193;SDS011;35029;50.804;12.866;2022-07-29T04:42:51;7.38;;;4.25;;
49193;SDS011;35029;50.804;12.866;2022-07-29T04:45:17;7.38;;;4.90;;
49193;SDS011;35029;50.804;12.866;2022-07-29T04:47:42;7.35;;;5.00;;
49193;SDS011;35029;50.804;12.866;2022-07-29T04:50:08;8.80;;;5.00;;
49193;SDS011;35029;50.804;12.866;2022-07-29T04:52:34;8.15;;;4.80;;
49193;SDS011;35029;50.804;12.866;2022-07-29T04:55:00;11.38;;;4.43;;
49193;SDS011;35029;50.804;12.866;2022-07-29T04:57:27;6.82;;;4.50;;
49193;SDS011;35029;50.804;12.866;2022-07-29T04:59:52;8.77;;;4.32;;
49193;SDS011;35029;50.804;12.866;2022-07-29T05:02:19;9.02;;;4.43;;
49193;SDS011;35029;50.804;12.866;2022-07-29T05:04:44;8.25;;;4.57;;
49193;SDS011;35029;50.804;12.866;2022-07-29T05:07:10;8.82;;;4.70;;
49193;SDS011;35029;50.804;12.866;2022-07-29T05:09:35;8.48;;;4.68;;
49193;SDS011;35029;50.804;12.866;2022-07-29T05:12:01;9.88;;;4.45;;
49193;SDS011;35029;50.804;12.866;2022-07-29T05:14:26;7.68;;;4.13;;
49193;SDS011;35029;50.804;12.866;2022-07-29T05:16:52;7.20;;;4.47;;
49193;SDS011;35029;50.804;12.866;2022-07-29T05:19:21;11.60;;;4.65;;
49193;SDS011;35029;50.804;12.866;2022-07-29T05:21:47;8.00;;;4.68;;
49193;SDS011;35029;50.804;12.866;2022-07-29T05:24:12;9.70;;;4.47;;
49193;SDS011;35029;50.804;12.866;2022-07-29T05:26:38;8.82;;;4.97;;
49193;SDS011;35029;50.804;12.866;2022-07-29T05:29:04;8.48;;;4.35;;
49193;SDS011;35029;50.804;12.866;2022-07-29T05:31:30;9.27;;;4.90;;
49193;SDS011;35029;50.804;12.866;2022-07-29T05:33:55;8.85;;;4.85;;
49193;SDS011;35029;50.804;12.866;2022-07-29T05:36:21;13.55;;;5.43;;
49193;SDS011;35029;50.804;12.866;2022-07-29T05:38:46;11.30;;;4.95;;
49193;SDS011;35029;50.804;12.866;2022-07-29T05:41:12;15.23;;;4.47;;
49193;SDS011;35029;50.804;12.866;2022-07-29T05:43:37;8.10;;;4.40;;
49193;SDS011;35029;50.804;12.866;2022-07-29T05:46:03;6.82;;;4.25;;
49193;SDS011;35029;50.804;12.866;2022-07-29T05:48:28;6.88;;;3.83;;
49193;SDS011;35029;50.804;12.866;2022-07-29T05:50:54;9.57;;;4.43;;
49193;SDS011;35029;50.804;12.866;2022-07-29T05:53:20;8.43;;;4.40;;
49193;SDS011;35029;50.804;12.866;2022-07-29T05:55:47;7.53;;;4.55;;
49193;SDS011;35029;50.804;12.866;2022-07-29T05:58:13;9.75;;;4.65;;
49193;SDS011;35029;50.804;12.866;2022-07-29T06:00:39;7.70;;;4.10;;
49193;SDS011;35029;50.804;12.866;2022-07-29T06:03:05;10.05;;;3.97;;
49193;SDS011;35029;50.804;12.866;2022-07-29T06:05:31;7.72;;;4.32;;
49193;SDS011;35029;50.804;12.866;2022-07-29T06:07:56;8.55;;;4.50;;
49193;SDS011;35029;50.804;12.866;2022-07-29T06:10:22;11.55;;;4.93;;
49193;SDS011;35029;50.804;12.866;2022-07-29T06:12:47;9.73;;;4.43;;
49193;SDS011;35029;50.804;12.866;2022-07-29T06:15:13;11.32;;;3.60;;
49193;SDS011;35029;50.804;12.866;2022-07-29T06:17:40;6.78;;;3.83;;
49193;SDS011;35029;50.804;12.866;2022-07-29T06:20:06;7.20;;;3.90;;
49193;SDS011;35029;50.804;12.866;2022-07-29T06:22:31;7.85;;;4.20;;
49193;SDS011;35029;50.804;12.866;2022-07-29T06:24:57;12.38;;;4.18;;
49193;SDS011;35029;50.804;12.866;2022-07-29T06:27:22;5.57;;;3.90;;
49193;SDS011;35029;50.804;12.866;2022-07-29T06:29:48;9.32;;;4.40;;
49193;SDS011;35029;50.804;12.866;2022-07-29T06:32:13;11.15;;;4.10;;
49193;SDS011;35029;50.804;12.866;2022-07-29T06:34:40;11.50;;;4.05;;
49193;SDS011;35029;50.804;12.866;2022-07-29T06:37:06;8.13;;;4.22;;
49193;SDS011;35029;50.804;12.866;2022-07-29T06:39:36;9.15;;;4.65;;
49193;SDS011;35029;50.804;12.866;2022-07-29T06:42:03;8.27;;;4.28;;
49193;SDS011;35029;50.804;12.866;2022-07-29T06:44:30;11.05;;;4.72;;
49193;SDS011;35029;50.804;12.866;2022-07-29T06:46:56;5.93;;;3.80;;
49193;SDS011;35029;50.804;12.866;2022-07-29T06:49:22;7.55;;;4.47;;
49193;SDS011;35029;50.804;12.866;2022-07-29T06:51:49;8.38;;;4.60;;
49193;SDS011;35029;50.804;12.866;2022-07-29T06:54:15;8.05;;;4.55;;
49193;SDS011;35029;50.804;12.866;2022-07-29T06:56:41;8.88;;;3.95;;
49193;SDS011;35029;50.804;12.866;2022-07-29T06:59:08;9.75;;;4.65;;
49193;SDS011;35029;50.804;12.866;2022-07-29T07:01:35;10.73;;;4.90;;
49193;SDS011;35029;50.804;12.866;2022-07-29T07:04:02;9.50;;;4.43;;
49193;SDS011;35029;50.804;12.866;2022-07-29T07:06:27;6.18;;;3.85;;
49193;SDS011;35029;50.804;12.866;2022-07-29T07:08:53;7.72;;;4.40;;
49193;SDS011;35029;50.804;12.866;2022-07-29T07:11:19;7.95;;;4.07;;
49193;SDS011;35029;50.804;12.866;2022-07-29T07:13:44;7.10;;;3.60;;
49193;SDS011;35029;50.804;12.866;2022-07-29T07:16:10;5.88;;;3.47;;
49193;SDS011;35029;50.804;12.866;2022-07-29T07:18:35;9.00;;;4.30;;
49193;SDS011;35029;50.804;12.866;2022-07-29T07:21:00;11.70;;;4.10;;
49193;SDS011;35029;50.804;12.866;2022-07-29T07:23:26;7.00;;;4.10;;
49193;SDS011;35029;50.804;12.866;2022-07-29T07:25:52;8.15;;;3.65;;
49193;SDS011;35029;50.804;12.866;2022-07-29T07:28:18;6.05;;;3.50;;
49193;SDS011;35029;50.804;12.866;2022-07-29T07:30:44;4.90;;;2.78;;
49193;SDS011;35029;50.804;12.866;2022-07-29T07:33:10;4.47;;;2.70;;
49193;SDS011;35029;50.804;12.866;2022-07-29T07:35:35;7.25;;;3.20;;
49193;SDS011;35029;50.804;12.866;2022-07-29T07:38:01;7.43;;;3.08;;
49193;SDS011;35029;50.804;12.866;2022-07-29T07:40:26;5.90;;;3.38;;
49193;SDS011;35029;50.804;12.866;2022-07-29T07:42:52;6.90;;;2.88;;
49193;SDS011;35029;50.804;12.866;2022-07-29T07:45:18;3.20;;;2.90;;
49193;SDS011;35029;50.804;12.866;2022-07-29T07:47:44;9.35;;;3.20;;
49193;SDS011;35029;50.804;12.866;2022-07-29T07:50:10;4.57;;;3.10;;
49193;SDS011;35029;50.804;12.866;2022-07-29T07:52:52;4.22;;;2.83;;
49193;SDS011;35029;50.804;12.866;2022-07-29T07:55:20;7.88;;;3.30;;
49193;SDS011;35029;50.804;12.866;2022-07-29T07:57:45;4.45;;;2.75;;
49193;SDS011;35029;50.804;12.866;2022-07-29T08:00:15;4.28;;;2.83;;
49193;SDS011;35029;50.804;12.866;2022-07-29T08:02:41;3.90;;;2.65;;
49193;SDS011;35029;50.804;12.866;2022-07-29T08:05:08;4.55;;;2.30;;
49193;SDS011;35029;50.804;12.866;2022-07-29T08:07:42;3.53;;;2.55;;
49193;SDS011;35029;50.804;12.866;2022-07-29T08:10:12;6.57;;;3.20;;
49193;SDS011;35029;50.804;12.866;2022-07-29T08:13:02;9.23;;;4.07;;
49193;SDS011;35029;50.804;12.866;2022-07-29T08:15:29;11.00;;;4.20;;
49193;SDS011;35029;50.804;12.866;2022-07-29T08:17:54;9.25;;;4.35;;
49193;SDS011;35029;50.804;12.866;2022-07-29T08:20:20;7.10;;;3.80;;
49193;SDS011;35029;50.804;12.866;2022-07-29T08:22:46;5.78;;;3.67;;
49193;SDS011;35029;50.804;12.866;2022-07-29T08:25:12;6.22;;;3.58;;
49193;SDS011;35029;50.804;12.866;2022-07-29T08:27:37;6.40;;;3.50;;
49193;SDS011;35029;50.804;12.866;2022-07-29T08:30:03;4.70;;;3.60;;
49193;SDS011;35029;50.804;12.866;2022-07-29T08:32:29;9.43;;;4.20;;
49193;SDS011;35029;50.804;12.866;2022-07-29T08:34:56;10.60;;;3.40;;
49193;SDS011;35029;50.804;12.866;2022-07-29T08:37:22;13.23;;;4.20;;
49193;SDS011;35029;50.804;12.866;2022-07-29T08:39:48;38.08;;;6.30;;
49193;SDS011;35029;50.804;12.866;2022-07-29T08:42:14;18.00;;;4.72;;
49193;SDS011;35029;50.804;12.866;2022-07-29T08:44:41;42.50;;;7.75;;
49193;SDS011;35029;50.804;12.866;2022-07-29T08:47:07;17.05;;;4.32;;
49193;SDS011;35029;50.804;12.866;2022-07-29T08:49:34;7.30;;;3.03;;
49193;SDS011;35029;50.804;12.866;2022-07-29T08:52:01;5.05;;;2.80;;
49193;SDS011;35029;50.804;12.866;2022-07-29T08:54:28;4.78;;;2.90;;
49193;SDS011;35029;50.804;12.866;2022-07-29T08:56:54;7.30;;;2.70;;
49193;SDS011;35029;50.804;12.866;2022-07-29T08:59:22;7.05;;;3.47;;
49193;SDS011;35029;50.804;12.866;2022-07-29T09:01:52;6.88;;;2.72;;
49193;SDS011;35029;50.804;12.866;2022-07-29T09:04:19;6.72;;;2.63;;
49193;SDS011;35029;50.804;12.866;2022-07-29T09:06:47;3.45;;;2.42;;
49193;SDS011;35029;50.804;12.866;2022-07-29T09:09:15;4.82;;;2.88;;
49193;SDS011;35029;50.804;12.866;2022-07-29T09:11:41;6.13;;;3.25;;
49193;SDS011;35029;50.804;12.866;2022-07-29T09:14:07;5.13;;;3.00;;
49193;SDS011;35029;50.804;12.866;2022-07-29T09:19:30;4.65;;;2.58;;
49193;SDS011;35029;50.804;12.866;2022-07-29T09:21:58;6.32;;;2.80;;
49193;SDS011;35029;50.804;12.866;2022-07-29T09:24:42;5.13;;;2.70;;
49193;SDS011;35029;50.804;12.866;2022-07-29T09:27:26;3.72;;;2.67;;
49193;SDS011;35029;50.804;12.866;2022-07-29T09:30:10;4.45;;;2.80;;
49193;SDS011;35029;50.804;12.866;2022-07-29T09:32:55;3.20;;;2.50;;
49193;SDS011;35029;50.804;12.866;2022-07-29T09:35:24;8.00;;;2.72;;
49193;SDS011;35029;50.804;12.866;2022-07-29T09:37:51;4.75;;;2.70;;
49193;SDS011;35029;50.804;12.866;2022-07-29T09:40:18;5.30;;;2.40;;
49193;SDS011;35029;50.804;12.866;2022-07-29T09:42:46;6.03;;;2.70;;
49193;SDS011;35029;50.804;12.866;2022-07-29T09:45:12;9.93;;;2.85;;
49193;SDS011;35029;50.804;12.866;2022-07-29T09:47:50;9.13;;;2.90;;
49193;SDS011;35029;50.804;12.866;2022-07-29T09:50:16;4.95;;;2.65;;
49193;SDS011;35029;50.804;12.866;2022-07-29T09:52:48;8.18;;;3.03;;
49193;SDS011;35029;50.804;12.866;2022-07-29T09:55:18;5.05;;;2.78;;
49193;SDS011;35029;50.804;12.866;2022-07-29T09:57:45;7.18;;;2.85;;
49193;SDS011;35029;50.804;12.866;2022-07-29T10:00:13;3.58;;;2.88;;
49193;SDS011;35029;50.804;12.866;2022-07-29T10:02:42;10.80;;;3.37;;
49193;SDS011;35029;50.804;12.866;2022-07-29T10:10:18;7.18;;;2.75;;
49193;SDS011;35029;50.804;12.866;2022-07-29T10:12:52;3.45;;;2.50;;
49193;SDS011;35029;50.804;12.866;2022-07-29T10:15:20;7.72;;;2.65;;
49193;SDS011;35029;50.804;12.866;2022-07-29T10:17:48;3.97;;;2.78;;
49193;SDS011;35029;50.804;12.866;2022-07-29T10:20:14;4.57;;;2.60;;
49193;SDS011;35029;50.804;12.866;2022-07-29T10:22:41;7.35;;;3.15;;
49193;SDS011;35029;50.804;12.866;2022-07-29T10:25:08;3.78;;;2.42;;
49193;SDS011;35029;50.804;12.866;2022-07-29T10:27:35;4.20;;;2.40;;
49193;SDS011;35029;50.804;12.866;2022-07-29T10:30:02;3.63;;;2.40;;
49193;SDS011;35029;50.804;12.866;2022-07-29T10:43:43;3.75;;;2.90;;
49193;SDS011;35029;50.804;12.866;2022-07-29T10:46:12;4.03;;;2.58;;
49193;SDS011;35029;50.804;12.866;2022-07-29T10:57:19;3.47;;;2.50;;
49193;SDS011;35029;50.804;12.866;2022-07-29T10:59:48;3.83;;;2.75;;
49193;SDS011;35029;50.804;12.866;2022-07-29T11:05:04;3.22;;;2.50;;
49193;SDS011;35029;50.804;12.866;2022-07-29T11:07:34;4.90;;;2.58;;
49193;SDS011;35029;50.804;12.866;2022-07-29T11:10:19;4.18;;;2.63;;
49193;SDS011;35029;50.804;12.866;2022-07-29T11:12:46;5.18;;;2.40;;
49193;SDS011;35029;50.804;12.866;2022-07-29T11:15:13;6.32;;;2.40;;
49193;SDS011;35029;50.804;12.866;2022-07-29T11:26:12;17.75;;;4.13;;
49193;SDS011;35029;50.804;12.866;2022-07-29T11:39:40;4.30;;;2.30;;
49193;SDS011;35029;50.804;12.866;2022-07-29T11:47:36;14.95;;;2.90;;
49193;SDS011;35029;50.804;12.866;2022-07-29T11:50:04;10.65;;;2.88;;
49193;SDS011;35029;50.804;12.866;2022-07-29T11:52:35;30.20;;;3.58;;
49193;SDS011;35029;50.804;12.866;2022-07-29T11:55:08;54.03;;;4.85;;
49193;SDS011;35029;50.804;12.866;2022-07-29T11:57:35;4.43;;;2.67;;
49193;SDS011;35029;50.804;12.866;2022-07-29T12:00:03;14.98;;;3.40;;
49193;SDS011;35029;50.804;12.866;2022-07-29T12:02:39;17.65;;;3.30;;
49193;SDS011;35029;50.804;12.866;2022-07-29T12:05:08;28.50;;;4.35;;
49193;SDS011;35029;50.804;12.866;2022-07-29T12:07:36;83.50;;;8.13;;
49193;SDS011;35029;50.804;12.866;2022-07-29T12:10:03;9.00;;;2.53;;
49193;SDS011;35029;50.804;12.866;2022-07-29T12:12:30;6.82;;;2.83;;
49193;SDS011;35029;50.804;12.866;2022-07-29T12:14:56;12.85;;;2.40;;
49193;SDS011;35029;50.804;12.866;2022-07-29T12:17:29;49.28;;;4.45;;
49193;SDS011;35029;50.804;12.866;2022-07-29T12:19:56;11.00;;;2.53;;
49193;SDS011;35029;50.804;12.866;2022-07-29T12:24:52;3.05;;;2.47;;
49193;SDS011;35029;50.804;12.866;2022-07-29T12:27:19;9.77;;;3.30;;
49193;SDS011;35029;50.804;12.866;2022-07-29T12:29:45;14.68;;;2.78;;
49193;SDS011;35029;50.804;12.866;2022-07-29T12:32:21;7.30;;;3.03;;
49193;SDS011;35029;50.804;12.866;2022-07-29T12:34:46;35.17;;;4.15;;
49193;SDS011;35029;50.804;12.866;2022-07-29T12:37:12;6.32;;;2.72;;
49193;SDS011;35029;50.804;12.866;2022-07-29T12:39:38;4.30;;;3.05;;
49193;SDS011;35029;50.804;12.866;2022-07-29T12:42:11;12.32;;;2.65;;
49193;SDS011;35029;50.804;12.866;2022-07-29T12:44:46;10.30;;;2.50;;
49193;SDS011;35029;50.804;12.866;2022-07-29T12:47:13;3.72;;;2.72;;
49193;SDS011;35029;50.804;12.866;2022-07-29T12:49:39;5.05;;;2.70;;
49193;SDS011;35029;50.804;12.866;2022-07-29T12:52:22;7.63;;;3.00;;
49193;SDS011;35029;50.804;12.866;2022-07-29T12:54:49;15.15;;;3.08;;
49193;SDS011;35029;50.804;12.866;2022-07-29T12:57:15;7.30;;;2.65;;
49193;SDS011;35029;50.804;12.866;2022-07-29T12:59:41;5.38;;;2.75;;
49193;SDS011;35029;50.804;12.866;2022-07-29T13:02:06;8.60;;;3.00;;
49193;SDS011;35029;50.804;12.866;2022-07-29T13:04:33;5.65;;;3.13;;
49193;SDS011;35029;50.804;12.866;2022-07-29T13:07:07;3.58;;;2.60;;
49193;SDS011;35029;50.804;12.866;2022-07-29T13:09:36;12.02;;;2.78;;
49193;SDS011;35029;50.804;12.866;2022-07-29T13:12:07;15.85;;;3.05;;
49193;SDS011;35029;50.804;12.866;2022-07-29T13:14:38;5.13;;;2.70;;
49193;SDS011;35029;50.804;12.866;2022-07-29T13:19:42;6.50;;;2.58;;
49193;SDS011;35029;50.804;12.866;2022-07-29T13:22:08;3.13;;;2.58;;
49193;SDS011;35029;50.804;12.866;2022-07-29T13:24:44;4.97;;;2.75;;
49193;SDS011;35029;50.804;12.866;2022-07-29T13:27:11;2.67;;;2.40;;
49193;SDS011;35029;50.804;12.866;2022-07-29T13:29:38;2.83;;;2.60;;
49193;SDS011;35029;50.804;12.866;2022-07-29T13:32:05;2.53;;;2.33;;
49193;SDS011;35029;50.804;12.866;2022-07-29T13:34:30;5.85;;;3.03;;
49193;SDS011;35029;50.804;12.866;2022-07-29T13:36:56;10.57;;;3.03;;
49193;SDS011;35029;50.804;12.866;2022-07-29T13:39:22;4.95;;;2.60;;
49193;SDS011;35029;50.804;12.866;2022-07-29T13:41:47;2.88;;;2.58;;
49193;SDS011;35029;50.804;12.866;2022-07-29T13:44:13;3.05;;;2.53;;
49193;SDS011;35029;50.804;12.866;2022-07-29T13:46:38;3.42;;;2.35;;
49193;SDS011;35029;50.804;12.866;2022-07-29T13:49:03;7.38;;;3.13;;
49193;SDS011;35029;50.804;12.866;2022-07-29T13:51:29;13.57;;;4.20;;
49193;SDS011;35029;50.804;12.866;2022-07-29T13:53:54;8.02;;;2.97;;
49193;SDS011;35029;50.804;12.866;2022-07-29T13:56:20;4.75;;;3.63;;
49193;SDS011;35029;50.804;12.866;2022-07-29T13:58:45;9.57;;;3.47;;
49193;SDS011;35029;50.804;12.866;2022-07-29T14:01:11;5.57;;;3.53;;
49193;SDS011;35029;50.804;12.866;2022-07-29T14:03:42;11.27;;;4.25;;
49193;SDS011;35029;50.804;12.866;2022-07-29T14:06:08;3.90;;;3.42;;
49193;SDS011;35029;50.804;12.866;2022-07-29T14:08:34;4.45;;;3.65;;
49193;SDS011;35029;50.804;12.866;2022-07-29T14:10:59;5.55;;;3.35;;
49193;SDS011;35029;50.804;12.866;2022-07-29T14:13:25;6.53;;;3.67;;
49193;SDS011;35029;50.804;12.866;2022-07-29T14:15:51;7.95;;;3.90;;
49193;SDS011;35029;50.804;12.866;2022-07-29T14:18:17;6.30;;;4.00;;
49193;SDS011;35029;50.804;12.866;2022-07-29T14:20:42;4.00;;;3.70;;
49193;SDS011;35029;50.804;12.866;2022-07-29T14:23:08;4.28;;;3.83;;
49193;SDS011;35029;50.804;12.866;2022-07-29T14:25:33;4.60;;;3.78;;
49193;SDS011;35029;50.804;12.866;2022-07-29T14:27:59;4.45;;;4.05;;
49193;SDS011;35029;50.804;12.866;2022-07-29T14:30:24;5.53;;;3.97;;
49193;SDS011;35029;50.804;12.866;2022-07-29T14:32:50;7.57;;;4.28;;
49193;SDS011;35029;50.804;12.866;2022-07-29T14:35:15;6.20;;;3.78;;
49193;SDS011;35029;50.804;12.866;2022-07-29T14:37:41;13.30;;;4.07;;
49193;SDS011;35029;50.804;12.866;2022-07-29T14:40:07;11.55;;;4.90;;
49193;SDS011;35029;50.804;12.866;2022-07-29T14:42:34;7.90;;;4.28;;
49193;SDS011;35029;50.804;12.866;2022-07-29T14:44:59;23.20;;;5.13;;
49193;SDS011;35029;50.804;12.866;2022-07-29T14:47:25;6.20;;;4.43;;
49193;SDS011;35029;50.804;12.866;2022-07-29T14:49:50;8.02;;;4.25;;
49193;SDS011;35029;50.804;12.866;2022-07-29T14:52:16;6.80;;;4.30;;
49193;SDS011;35029;50.804;12.866;2022-07-29T14:54:41;14.02;;;4.57;;
49193;SDS011;35029;50.804;12.866;2022-07-29T14:57:07;16.48;;;5.38;;
49193;SDS011;35029;50.804;12.866;2022-07-29T14:59:33;11.35;;;4.57;;
49193;SDS011;35029;50.804;12.866;2022-07-29T15:01:59;10.70;;;4.72;;
49193;SDS011;35029;50.804;12.866;2022-07-29T15:04:24;8.45;;;4.80;;
49193;SDS011;35029;50.804;12.866;2022-07-29T15:06:50;7.80;;;5.05;;
49193;SDS011;35029;50.804;12.866;2022-07-29T15:09:17;9.30;;;5.25;;
49193;SDS011;35029;50.804;12.866;2022-07-29T15:11:43;7.97;;;4.93;;
49193;SDS011;35029;50.804;12.866;2022-07-29T15:14:09;9.20;;;5.53;;
49193;SDS011;35029;50.804;12.866;2022-07-29T15:16:35;7.65;;;5.40;;
49193;SDS011;35029;50.804;12.866;2022-07-29T15:19:02;6.35;;;4.70;;
49193;SDS011;35029;50.804;12.866;2022-07-29T15:21:28;6.63;;;5.05;;
49193;SDS011;35029;50.804;12.866;2022-07-29T15:23:53;6.03;;;4.40;;
49193;SDS011;35029;50.804;12.866;2022-07-29T15:26:19;5.32;;;4.18;;
49193;SDS011;35029;50.804;12.866;2022-07-29T15:28:45;4.75;;;4.30;;
49193;SDS011;35029;50.804;12.866;2022-07-29T15:31:10;5.13;;;4.05;;
49193;SDS011;35029;50.804;12.866;2022-07-29T15:33:36;7.57;;;4.03;;
49193;SDS011;35029;50.804;12.866;2022-07-29T15:36:01;5.85;;;4.72;;
49193;SDS011;35029;50.804;12.866;2022-07-29T15:38:29;5.13;;;4.07;;
49193;SDS011;35029;50.804;12.866;2022-07-29T15:40:55;4.20;;;3.78;;
49193;SDS011;35029;50.804;12.866;2022-07-29T15:43:21;6.00;;;3.90;;
49193;SDS011;35029;50.804;12.866;2022-07-29T15:45:47;4.47;;;3.80;;
49193;SDS011;35029;50.804;12.866;2022-07-29T15:48:31;4.68;;;3.72;;
49193;SDS011;35029;50.804;12.866;2022-07-29T15:50:58;4.60;;;3.80;;
49193;SDS011;35029;50.804;12.866;2022-07-29T15:53:23;5.97;;;3.97;;
49193;SDS011;35029;50.804;12.866;2022-07-29T15:55:50;4.00;;;3.65;;